createdAt,value
2023-04-23T00:00:10.466Z,94940.94
2023-04-23T00:02:44.634Z,94948.34
2023-04-23T00:05:13.150Z,94943.25
2023-04-23T00:07:42.748Z,94937.03
2023-04-23T00:10:13.492Z,94909.31
2023-04-23T00:12:43.654Z,94935.31
2023-04-23T00:15:12.652Z,94918.34
2023-04-23T00:17:39.938Z,94930.84
2023-04-23T00:20:07.997Z,94929.78
2023-04-23T00:22:35.730Z,94944.22
2023-04-23T00:25:03.318Z,94945.28
2023-04-23T00:27:30.439Z,94918.81
2023-04-23T00:29:57.520Z,94941.25
2023-04-23T00:32:24.650Z,94942.50
2023-04-23T00:34:51.816Z,94930.72
2023-04-23T00:37:18.770Z,94937.66
2023-04-23T00:39:45.750Z,94924.72
2023-04-23T00:42:13.949Z,94932.22
2023-04-23T00:44:44.551Z,94924.22
2023-04-23T00:47:12.297Z,94915.25
2023-04-23T00:49:39.553Z,94933.50
2023-04-23T00:52:06.779Z,94931.56
2023-04-23T00:54:34.381Z,94932.25
2023-04-23T00:57:02.393Z,94929.56
2023-04-23T00:59:31.775Z,94938.59
2023-04-23T01:01:59.241Z,94934.59
2023-04-23T01:04:29.604Z,94937.34
2023-04-23T01:06:57.957Z,94936.75
2023-04-23T01:09:27.677Z,94937.81
2023-04-23T01:11:58.041Z,94914.91
2023-04-23T01:14:25.708Z,94934.81
2023-04-23T01:16:53.520Z,94940.13
2023-04-23T01:19:20.856Z,94939.53
2023-04-23T01:21:50.078Z,94934.44
2023-04-23T01:24:17.426Z,94941.84
2023-04-23T01:26:46.817Z,94932.94
2023-04-23T01:29:14.337Z,94938.47
2023-04-23T01:31:42.244Z,94933.63
2023-04-23T01:34:11.013Z,94924.38
2023-04-23T01:36:38.207Z,94927.84
2023-04-23T01:39:05.781Z,94938.59
2023-04-23T01:41:33.995Z,94916.75
2023-04-23T01:44:02.072Z,94939.88
2023-04-23T01:46:29.458Z,94947.47
2023-04-23T01:48:56.735Z,94936.63
2023-04-23T01:51:25.710Z,94938.69
2023-04-23T01:53:53.084Z,94948.88
2023-04-23T01:56:25.416Z,94949.09
2023-04-23T01:58:52.759Z,94943.91
2023-04-23T02:01:19.770Z,94939.88
2023-04-23T02:03:49.350Z,94954.31
2023-04-23T02:06:16.422Z,94948.41
2023-04-23T02:08:43.656Z,94947.84
2023-04-23T02:11:10.666Z,94948.88
2023-04-23T02:13:37.628Z,94954.41
2023-04-23T02:16:05.354Z,94956.69
2023-04-23T02:18:32.444Z,94933.38
2023-04-23T02:21:00.336Z,94923.75
2023-04-23T02:23:27.342Z,94951.28
2023-04-23T02:25:54.277Z,94949.66
2023-04-23T02:28:21.225Z,94948.50
2023-04-23T02:30:48.440Z,94947.69
2023-04-23T02:33:15.506Z,94948.13
2023-04-23T02:35:42.599Z,94960.59
2023-04-23T02:38:09.596Z,94955.78
2023-04-23T02:40:36.721Z,94952.38
2023-04-23T02:43:03.696Z,94949.50
2023-04-23T02:45:30.957Z,94954.81
2023-04-23T02:47:58.049Z,94957.47
2023-04-23T02:50:25.142Z,94943.38
2023-04-23T02:52:52.341Z,94945.78
2023-04-23T02:55:19.354Z,94953.88
2023-04-23T02:57:47.621Z,94960.22
2023-04-23T03:00:15.280Z,94956.19
2023-04-23T03:02:43.820Z,94963.56
2023-04-23T03:05:12.751Z,94961.94
2023-04-23T03:07:44.713Z,94960.31
2023-04-23T03:10:11.839Z,94955.25
2023-04-23T03:12:39.280Z,94911.03
2023-04-23T03:15:07.229Z,94964.47
2023-04-23T03:17:36.438Z,94970.38
2023-04-23T03:20:04.404Z,94967.72
2023-04-23T03:22:32.342Z,94973.25
2023-04-23T03:24:59.578Z,94974.63
2023-04-23T03:27:26.673Z,94971.97
2023-04-23T03:29:53.768Z,94971.63
2023-04-23T03:32:21.009Z,94977.06
2023-04-23T03:34:48.344Z,94975.44
2023-04-23T03:37:15.237Z,94971.31
2023-04-23T03:39:42.458Z,94975.00
2023-04-23T03:42:10.811Z,94974.09
2023-04-23T03:44:39.054Z,94977.53
2023-04-23T03:47:06.339Z,94965.31
2023-04-23T03:49:33.874Z,94979.78
2023-04-23T03:52:00.928Z,94980.38
2023-04-23T03:54:29.898Z,94979.34
2023-04-23T03:57:08.755Z,94982.81
2023-04-23T03:59:39.409Z,94986.41
2023-04-23T04:02:06.656Z,94982.34
2023-04-23T04:04:34.327Z,94988.72
2023-04-23T04:07:01.595Z,94997.28
2023-04-23T04:09:29.524Z,94981.09
2023-04-23T04:12:01.716Z,94992.56
2023-04-23T04:14:29.022Z,94971.59
2023-04-23T04:16:56.962Z,94995.00
2023-04-23T04:19:24.474Z,94999.03
2023-04-23T04:21:51.514Z,95009.91
2023-04-23T04:24:18.546Z,94993.72
2023-04-23T04:26:46.276Z,94998.34
2023-04-23T04:29:13.489Z,95002.28
2023-04-23T04:31:40.684Z,94999.88
2023-04-23T04:34:09.082Z,94998.97
2023-04-23T04:36:36.408Z,95001.06
2023-04-23T04:39:03.641Z,94896.75
2023-04-23T04:41:30.777Z,95002.66
2023-04-23T04:43:58.648Z,95002.28
2023-04-23T04:46:33.970Z,95001.47
2023-04-23T04:49:01.055Z,94995.56
2023-04-23T04:51:28.593Z,95015.78
2023-04-23T04:53:56.770Z,94997.63
2023-04-23T04:56:24.320Z,95021.19
2023-04-23T04:58:51.502Z,95011.34
2023-04-23T05:01:19.555Z,95011.47
2023-04-23T05:03:46.742Z,95024.03
2023-04-23T05:06:13.789Z,95017.28
2023-04-23T05:08:41.927Z,95010.09
2023-04-23T05:11:09.097Z,95020.56
2023-04-23T05:13:36.034Z,95022.66
2023-04-23T05:16:02.948Z,95001.25
2023-04-23T05:18:33.994Z,95014.13
2023-04-23T05:21:01.394Z,95021.84
2023-04-23T05:23:28.297Z,95014.97
2023-04-23T05:25:57.194Z,94997.28
2023-04-23T05:28:24.448Z,95009.09
2023-04-23T05:30:52.112Z,95016.28
2023-04-23T05:33:19.146Z,95020.00
2023-04-23T05:35:46.391Z,95022.97
2023-04-23T05:38:13.313Z,94948.09
2023-04-23T05:40:40.533Z,95021.56
2023-04-23T05:43:07.739Z,95005.13
2023-04-23T05:45:34.759Z,95021.88
2023-04-23T05:48:01.864Z,94981.44
2023-04-23T05:50:30.182Z,95029.56
2023-04-23T05:52:57.420Z,95034.09
2023-04-23T05:55:24.387Z,95032.25
2023-04-23T05:57:51.432Z,94961.31
2023-04-23T06:00:18.391Z,95036.94
2023-04-23T06:02:56.050Z,95029.50
2023-04-23T06:05:25.567Z,95038.47
2023-04-23T06:07:53.227Z,95033.19
2023-04-23T06:10:20.246Z,95014.75
2023-04-23T06:12:47.874Z,95032.94
2023-04-23T06:15:15.036Z,95026.03
2023-04-23T06:17:41.945Z,95027.56
2023-04-23T06:20:11.796Z,95025.41
2023-04-23T06:22:39.645Z,95027.72
2023-04-23T06:25:07.348Z,95022.94
2023-04-23T06:27:34.287Z,95020.72
2023-04-23T06:30:08.500Z,95024.63
2023-04-23T06:32:36.460Z,95027.41
2023-04-23T06:35:09.574Z,95004.06
2023-04-23T06:37:36.631Z,95026.63
2023-04-23T06:40:03.876Z,95031.16
2023-04-23T06:42:31.087Z,95035.34
2023-04-23T06:45:19.466Z,95031.72
2023-04-23T06:47:46.629Z,95022.13
2023-04-23T06:50:13.595Z,95022.56
2023-04-23T06:52:40.672Z,95019.78
2023-04-23T06:55:08.580Z,95022.47
2023-04-23T06:57:36.139Z,95024.97
2023-04-23T07:00:05.742Z,95009.06
2023-04-23T07:02:37.936Z,95019.75
2023-04-23T07:05:05.715Z,95012.94
2023-04-23T07:07:33.074Z,95023.44
2023-04-23T07:10:00.395Z,94998.38
2023-04-23T07:12:27.502Z,95010.91
2023-04-23T07:14:54.469Z,95016.03
2023-04-23T07:17:21.783Z,94989.03
2023-04-23T07:19:49.606Z,94997.88
2023-04-23T07:22:16.655Z,95015.97
2023-04-23T07:24:43.960Z,95012.22
2023-04-23T07:27:11.250Z,95014.31
2023-04-23T07:29:38.304Z,94996.13
2023-04-23T07:32:05.297Z,95013.63
2023-04-23T07:34:32.480Z,95005.69
2023-04-23T07:36:59.807Z,95007.13
2023-04-23T07:39:26.981Z,95004.50
2023-04-23T07:41:54.119Z,95012.34
2023-04-23T07:44:21.278Z,95011.28
2023-04-23T07:46:48.000Z,95008.13
2023-04-23T07:49:15.038Z,95008.97
2023-04-23T07:51:42.212Z,95002.00
2023-04-23T07:54:10.608Z,95007.13
2023-04-23T07:56:37.681Z,95010.63
2023-04-23T07:59:06.200Z,94997.47
2023-04-23T08:01:34.102Z,95008.66
2023-04-23T08:04:01.597Z,94993.22
2023-04-23T08:06:30.373Z,95011.97
2023-04-23T08:08:57.675Z,95014.13
2023-04-23T08:11:24.632Z,95006.47
2023-04-23T08:13:51.446Z,95014.13
2023-04-23T08:16:18.125Z,95002.63
2023-04-23T08:18:57.890Z,95008.06
2023-04-23T08:21:32.613Z,95005.28
2023-04-23T08:24:03.403Z,95006.41
2023-04-23T08:26:31.225Z,95007.22
2023-04-23T08:28:58.046Z,94995.38
2023-04-23T08:31:27.086Z,94993.59
2023-04-23T08:33:54.402Z,94994.91
2023-04-23T08:36:21.120Z,94983.44
2023-04-23T08:38:47.991Z,94988.25
2023-04-23T08:41:15.564Z,94987.69
2023-04-23T08:43:42.414Z,94984.56
2023-04-23T08:46:11.854Z,94985.94
2023-04-23T08:48:40.049Z,94976.84
2023-04-23T08:51:09.522Z,94975.28
2023-04-23T08:53:38.439Z,94974.94
2023-04-23T08:56:07.213Z,94975.84
2023-04-23T08:58:34.216Z,94973.97
2023-04-23T09:01:01.827Z,94975.31
2023-04-23T09:03:29.725Z,94958.84
2023-04-23T09:05:57.459Z,94966.97
2023-04-23T09:08:24.708Z,94953.81
2023-04-23T09:10:52.629Z,94964.09
2023-04-23T09:13:21.879Z,94962.34
2023-04-23T09:15:56.887Z,94963.38
2023-04-23T09:18:26.221Z,94926.84
2023-04-23T09:20:54.365Z,94954.28
2023-04-23T09:23:23.480Z,94950.25
2023-04-23T09:25:50.596Z,94951.84
2023-04-23T09:28:20.766Z,94939.44
2023-04-23T09:30:49.817Z,94954.50
2023-04-23T09:33:17.670Z,94933.25
2023-04-23T09:35:44.949Z,94920.53
2023-04-23T09:38:12.102Z,94929.09
2023-04-23T09:40:39.211Z,94942.81
2023-04-23T09:43:10.182Z,94939.06
2023-04-23T09:45:37.965Z,94936.72
2023-04-23T09:48:06.061Z,94928.75
2023-04-23T09:50:38.610Z,94931.22
2023-04-23T09:53:09.132Z,94929.66
2023-04-23T09:55:42.019Z,94867.97
2023-04-23T09:58:15.962Z,94894.84
2023-04-23T10:00:47.224Z,94913.38
2023-04-23T10:03:16.854Z,94900.13
2023-04-23T10:06:00.623Z,94910.16
2023-04-23T10:08:32.374Z,94906.09
2023-04-23T10:11:10.045Z,94914.53
2023-04-23T10:13:47.381Z,94911.00
2023-04-23T10:16:24.392Z,94908.97
2023-04-23T10:18:59.759Z,94901.75
2023-04-23T10:21:39.482Z,94892.16
2023-04-23T10:24:14.475Z,94891.03
2023-04-23T10:26:43.544Z,94888.13
2023-04-23T10:29:20.824Z,94866.13
2023-04-23T10:31:48.950Z,94864.66
2023-04-23T10:34:16.438Z,94871.69
2023-04-23T10:36:43.973Z,94857.94
2023-04-23T10:39:12.426Z,94852.78
2023-04-23T10:41:42.992Z,94870.25
2023-04-23T10:44:17.590Z,94855.03
2023-04-23T10:46:58.756Z,94859.16
2023-04-23T10:49:26.089Z,94857.13
2023-04-23T10:54:41.850Z,94842.81
2023-04-23T10:57:10.239Z,94851.94
2023-04-23T10:59:56.506Z,94846.09
2023-04-23T11:02:25.756Z,94834.53
2023-04-23T11:05:01.608Z,94829.31
2023-04-23T11:07:32.674Z,94821.09
2023-04-23T11:10:01.572Z,94837.47
2023-04-23T11:12:32.715Z,94812.91
2023-04-23T11:15:12.322Z,94814.00
2023-04-23T11:17:39.624Z,94818.59
2023-04-23T11:20:18.985Z,94807.53
2023-04-23T11:22:49.101Z,94811.22
2023-04-23T11:25:22.142Z,94810.03
2023-04-23T11:27:51.539Z,94800.19
2023-04-23T11:30:21.464Z,94804.66
2023-04-23T11:32:57.737Z,94802.34
2023-04-23T11:35:30.388Z,94797.72
2023-04-23T11:37:57.817Z,94796.25
2023-04-23T11:40:25.898Z,94800.47
2023-04-23T11:42:54.973Z,94789.84
2023-04-23T11:45:26.937Z,94798.84
2023-04-23T11:47:56.646Z,94792.44
2023-04-23T11:50:26.600Z,94779.50
2023-04-23T11:52:54.543Z,94771.03
2023-04-23T11:55:22.923Z,94771.47
2023-04-23T11:57:52.411Z,94774.28
2023-04-23T12:00:24.173Z,94777.91
2023-04-23T12:02:56.969Z,94765.31
2023-04-23T12:05:41.625Z,94768.41
2023-04-23T12:08:11.128Z,94748.19
2023-04-23T12:10:46.632Z,94752.81
2023-04-23T12:13:18.688Z,94778.50
2023-04-23T12:15:50.524Z,94767.03
2023-04-23T12:18:20.601Z,94763.22
2023-04-23T12:20:47.594Z,94763.25
2023-04-23T12:23:14.918Z,94752.06
2023-04-23T12:25:42.700Z,94767.06
2023-04-23T12:28:09.819Z,94754.13
2023-04-23T12:30:44.184Z,94743.19
2023-04-23T12:33:12.081Z,94752.78
2023-04-23T12:35:41.674Z,94720.56
2023-04-23T12:38:24.901Z,94744.13
2023-04-23T12:40:57.105Z,94745.28
2023-04-23T12:43:25.936Z,94741.94
2023-04-23T12:45:54.741Z,94743.16
2023-04-23T12:48:21.927Z,94745.84
2023-04-23T12:50:49.066Z,94751.25
2023-04-23T12:53:19.170Z,94745.56
2023-04-23T12:55:46.296Z,94735.56
2023-04-23T12:58:13.419Z,94745.59
2023-04-23T13:00:40.699Z,94738.72
2023-04-23T13:03:08.623Z,94747.59
2023-04-23T13:05:35.992Z,94751.41
2023-04-23T13:08:02.894Z,94725.63
2023-04-23T13:10:30.993Z,94737.47
2023-04-23T13:12:58.248Z,94732.56
2023-04-23T13:15:28.696Z,94727.97
2023-04-23T13:17:55.983Z,94732.88
2023-04-23T13:20:23.464Z,94721.38
2023-04-23T13:22:50.679Z,94729.84
2023-04-23T13:25:17.618Z,94720.75
2023-04-23T13:27:48.914Z,94728.59
2023-04-23T13:30:16.100Z,94724.72
2023-04-23T13:32:43.583Z,94722.03
2023-04-23T13:35:10.668Z,94728.06
2023-04-23T13:37:41.177Z,94713.56
2023-04-23T13:40:08.466Z,94720.72
2023-04-23T13:42:35.568Z,94714.31
2023-04-23T13:45:05.158Z,94713.97
2023-04-23T13:48:11.844Z,94707.81
2023-04-23T13:50:39.750Z,94709.75
2023-04-23T13:53:10.469Z,94715.31
2023-04-23T13:55:38.373Z,94707.44
2023-04-23T13:58:07.001Z,94709.88
2023-04-23T14:00:34.370Z,94700.41
2023-04-23T14:03:01.608Z,94710.13
2023-04-23T14:05:28.849Z,94712.34
2023-04-23T14:07:55.795Z,94715.03
2023-04-23T14:10:23.114Z,94718.16
2023-04-23T14:12:51.602Z,94716.72
2023-04-23T14:15:18.908Z,94698.72
2023-04-23T14:17:46.064Z,94714.66
2023-04-23T14:20:15.568Z,94712.28
2023-04-23T14:22:43.412Z,94721.72
2023-04-23T14:25:15.450Z,94709.38
2023-04-23T14:27:50.109Z,94715.13
2023-04-23T14:30:21.365Z,94709.41
2023-04-23T14:32:49.987Z,94684.84
2023-04-23T14:35:17.708Z,94707.34
2023-04-23T14:37:45.752Z,94704.13
2023-04-23T14:40:15.906Z,94694.47
2023-04-23T14:42:43.254Z,94693.38
2023-04-23T14:45:10.642Z,94698.16
2023-04-23T14:47:37.994Z,94676.06
2023-04-23T14:50:05.872Z,94686.72
2023-04-23T14:52:33.028Z,94697.66
2023-04-23T14:55:00.029Z,94697.84
2023-04-23T14:57:28.332Z,94688.75
2023-04-23T14:59:56.015Z,94698.88
2023-04-23T15:02:25.686Z,94700.72
2023-04-23T15:04:52.814Z,94694.78
2023-04-23T15:07:19.740Z,94689.53
2023-04-23T15:09:46.835Z,94689.41
2023-04-23T15:12:41.127Z,94687.44
2023-04-23T15:15:44.827Z,94670.50
2023-04-23T15:18:14.366Z,94693.56
2023-04-23T15:20:42.304Z,94680.81
2023-04-23T15:23:10.934Z,94669.13
2023-04-23T15:25:39.357Z,94672.75
2023-04-23T15:28:07.200Z,94670.34
2023-04-23T15:30:34.544Z,94663.06
2023-04-23T15:33:01.886Z,94662.03
2023-04-23T15:35:29.025Z,94664.81
2023-04-23T15:37:57.127Z,94669.22
2023-04-23T15:40:24.469Z,94661.81
2023-04-23T15:42:51.545Z,94666.94
2023-04-23T15:45:18.788Z,94657.34
2023-04-23T15:47:45.789Z,94659.06
2023-04-23T15:50:13.250Z,94655.78
2023-04-23T15:52:41.798Z,94640.81
2023-04-23T15:55:09.370Z,94666.56
2023-04-23T15:57:36.341Z,94663.25
2023-04-23T16:00:03.896Z,94663.97
2023-04-23T16:02:39.260Z,94663.50
2023-04-23T16:05:06.921Z,94651.56
2023-04-23T16:07:34.804Z,94656.25
2023-04-23T16:10:02.546Z,94659.41
2023-04-23T16:12:31.301Z,94647.59
2023-04-23T16:14:59.472Z,94653.09
2023-04-23T16:17:30.775Z,94641.69
2023-04-23T16:19:58.067Z,94653.28
2023-04-23T16:22:25.559Z,94656.00
2023-04-23T16:24:52.792Z,94652.63
2023-04-23T16:27:19.734Z,94622.50
2023-04-23T16:29:46.777Z,94653.75
2023-04-23T16:32:13.729Z,94659.44
2023-04-23T16:34:41.682Z,94660.78
2023-04-23T16:37:09.814Z,94667.47
2023-04-23T16:39:36.927Z,94660.78
2023-04-23T16:42:04.092Z,94656.94
2023-04-23T16:44:31.116Z,94660.53
2023-04-23T16:46:58.741Z,94663.50
2023-04-23T16:49:25.808Z,94672.75
2023-04-23T16:51:54.494Z,94666.81
2023-04-23T16:54:22.726Z,94673.94
2023-04-23T16:56:49.799Z,94677.88
2023-04-23T16:59:17.140Z,94682.28
2023-04-23T17:01:44.174Z,94669.97
2023-04-23T17:04:11.650Z,94675.16
2023-04-23T17:06:38.891Z,94671.78
2023-04-23T17:09:08.701Z,94677.34
2023-04-23T17:11:36.574Z,94680.59
2023-04-23T17:14:03.455Z,94669.22
2023-04-23T17:16:37.462Z,94676.03
2023-04-23T17:19:06.424Z,94683.69
2023-04-23T17:21:33.475Z,94679.44
2023-04-23T17:24:00.711Z,94680.47
2023-04-23T17:26:28.908Z,94688.63
2023-04-23T17:28:56.715Z,94685.59
2023-04-23T17:31:23.997Z,94692.53
2023-04-23T17:33:53.533Z,94696.84
2023-04-23T17:36:20.796Z,94695.38
2023-04-23T17:38:47.817Z,94690.47
2023-04-23T17:41:16.990Z,94668.59
2023-04-23T17:43:45.024Z,94697.38
2023-04-23T17:46:12.158Z,94696.84
2023-04-23T17:48:39.336Z,94692.13
2023-04-23T17:51:06.564Z,94707.50
2023-04-23T17:53:34.175Z,94713.97
2023-04-23T17:56:03.286Z,94716.69
2023-04-23T17:58:30.852Z,94717.53
2023-04-23T18:00:57.802Z,94702.66
2023-04-23T18:03:27.046Z,94722.25
2023-04-23T18:05:54.534Z,94719.59
2023-04-23T18:08:21.676Z,94708.94
2023-04-23T18:10:49.221Z,94720.47
2023-04-23T18:13:17.078Z,94731.50
2023-04-23T18:15:49.390Z,94716.28
2023-04-23T18:18:17.897Z,94731.09
2023-04-23T18:20:46.365Z,94742.88
2023-04-23T18:23:14.393Z,94750.97
2023-04-23T18:25:42.205Z,94757.16
2023-04-23T18:28:09.871Z,94755.88
2023-04-23T18:30:38.142Z,94759.34
2023-04-23T18:33:35.820Z,94767.66
2023-04-23T18:36:13.712Z,94764.47
2023-04-23T18:38:45.390Z,94768.81
2023-04-23T18:41:12.369Z,94746.59
2023-04-23T18:43:39.585Z,94731.63
2023-04-23T18:46:06.675Z,94767.28
2023-04-23T18:48:33.823Z,94761.63
2023-04-23T18:51:06.402Z,94769.16
2023-04-23T18:53:33.619Z,94762.16
2023-04-23T18:56:01.442Z,94743.69
2023-04-23T18:58:30.196Z,94764.31
2023-04-23T19:00:57.731Z,94764.88
2023-04-23T19:03:27.076Z,94768.34
2023-04-23T19:05:56.008Z,94766.22
2023-04-23T19:08:28.486Z,94764.09
2023-04-23T19:10:56.630Z,94754.97
2023-04-23T19:13:24.502Z,94763.81
2023-04-23T19:15:51.800Z,94757.91
2023-04-23T19:18:19.746Z,94770.25
2023-04-23T19:20:46.922Z,94771.84
2023-04-23T19:23:13.985Z,94774.00
2023-04-23T19:25:41.088Z,94749.59
2023-04-23T19:28:08.024Z,94765.97
2023-04-23T19:30:35.345Z,94763.28
2023-04-23T19:33:02.570Z,94695.97
2023-04-23T19:35:29.700Z,94769.97
2023-04-23T19:37:56.833Z,94765.16
2023-04-23T19:40:24.115Z,94765.94
2023-04-23T19:42:51.407Z,94765.13
2023-04-23T19:45:18.686Z,94739.09
2023-04-23T19:47:45.706Z,94766.19
2023-04-23T19:50:14.083Z,94764.28
2023-04-23T19:52:41.693Z,94768.28
2023-04-23T19:55:09.062Z,94761.59
2023-04-23T19:57:36.853Z,94766.69
2023-04-23T20:00:13.463Z,94753.84
2023-04-23T20:02:41.468Z,94770.63
2023-04-23T20:05:10.568Z,94765.03
2023-04-23T20:07:38.841Z,94770.38
2023-04-23T20:10:06.512Z,94764.22
2023-04-23T20:12:33.987Z,94768.47
2023-04-23T20:15:01.061Z,94760.97
2023-04-23T20:17:32.926Z,94764.19
2023-04-23T20:20:01.750Z,94772.97
2023-04-23T20:22:36.888Z,94770.88
2023-04-23T20:25:05.288Z,94769.50
2023-04-23T20:27:33.804Z,94757.44
2023-04-23T20:30:00.868Z,94760.66
2023-04-23T20:32:32.496Z,94758.78
2023-04-23T20:35:00.345Z,94749.94
2023-04-23T20:37:28.480Z,94763.81
2023-04-23T20:39:56.111Z,94757.44
2023-04-23T20:42:23.255Z,94761.06
2023-04-23T20:44:52.067Z,94734.50
2023-04-23T20:47:19.066Z,94766.44
2023-04-23T20:49:46.319Z,94687.66
2023-04-23T20:52:14.727Z,94757.16
2023-04-23T20:54:42.287Z,94769.63
2023-04-23T20:57:09.341Z,94773.56
2023-04-23T20:59:36.388Z,94773.56
2023-04-23T21:02:03.643Z,94757.16
2023-04-23T21:04:31.243Z,94765.50
2023-04-23T21:06:58.613Z,94778.63
2023-04-23T21:09:25.988Z,94770.28
2023-04-23T21:11:53.841Z,94783.97
2023-04-23T21:14:21.115Z,94784.47
2023-04-23T21:16:47.999Z,94776.66
2023-04-23T21:19:15.569Z,94778.53
2023-04-23T21:21:42.524Z,94777.38
2023-04-23T21:24:09.686Z,94777.03
2023-04-23T21:26:36.717Z,94779.22
2023-04-23T21:29:04.421Z,94789.97
2023-04-23T21:31:47.371Z,94765.50
2023-04-23T21:34:15.497Z,94781.88
2023-04-23T21:36:44.824Z,94779.97
2023-04-23T21:39:13.296Z,94779.69
2023-04-23T21:41:40.749Z,94782.66
2023-04-23T21:44:10.960Z,94752.91
2023-04-23T21:46:38.469Z,94788.47
2023-04-23T21:49:05.749Z,94788.00
2023-04-23T21:51:37.126Z,94793.91
2023-04-23T21:54:05.980Z,94792.88
2023-04-23T21:56:34.175Z,94793.19
2023-04-23T21:59:02.218Z,94799.34
2023-04-23T22:01:29.477Z,94811.91
2023-04-23T22:03:56.512Z,94807.06
2023-04-23T22:06:23.734Z,94809.19
2023-04-23T22:08:52.416Z,94821.47
2023-04-23T22:11:19.614Z,94808.84
2023-04-23T22:13:46.666Z,94819.28
2023-04-23T22:16:27.486Z,94806.09
2023-04-23T22:18:57.068Z,94816.81
2023-04-23T22:21:24.400Z,94784.59
2023-04-23T22:23:52.380Z,94804.03
2023-04-23T22:26:19.811Z,94810.22
2023-04-23T22:28:47.108Z,94811.56
2023-04-23T22:31:14.781Z,94779.97
2023-04-23T22:33:41.959Z,94790.50
2023-04-23T22:36:09.058Z,94783.00
2023-04-23T22:38:36.370Z,94774.13
2023-04-23T22:41:03.431Z,94770.69
2023-04-23T22:43:30.445Z,94771.19
2023-04-23T22:45:57.555Z,94758.88
2023-04-23T22:48:24.576Z,94750.09
2023-04-23T22:50:52.683Z,94765.91
2023-04-23T22:53:19.832Z,94764.88
2023-04-23T22:55:47.291Z,94766.22
2023-04-23T22:58:14.381Z,94765.97
2023-04-23T23:00:41.874Z,94757.38
2023-04-23T23:03:09.456Z,94766.53
2023-04-23T23:05:36.650Z,94778.31
2023-04-23T23:08:03.598Z,94746.38
2023-04-23T23:10:30.832Z,94802.72
2023-04-23T23:12:57.897Z,94804.63
2023-04-23T23:15:25.142Z,94789.88
2023-04-23T23:17:52.117Z,94800.06
2023-04-23T23:20:19.809Z,94795.00
2023-04-23T23:22:46.957Z,94791.53
2023-04-23T23:25:16.257Z,94781.09
2023-04-23T23:27:43.332Z,94774.13
2023-04-23T23:30:10.757Z,94766.66
2023-04-23T23:32:37.931Z,94759.94
2023-04-23T23:35:06.490Z,94759.09
2023-04-23T23:37:52.735Z,94749.97
2023-04-23T23:40:20.915Z,94740.56
2023-04-23T23:42:47.858Z,94746.19
2023-04-23T23:45:15.367Z,94740.81
2023-04-23T23:47:42.452Z,94760.13
2023-04-23T23:50:10.123Z,94754.47
2023-04-23T23:52:37.174Z,94737.84
2023-04-23T23:55:07.862Z,94634.56
2023-04-23T23:57:35.098Z,94735.41
